sensor_id;sensor_type;location;lat;lon;timestamp;temperature;humidity
68867;SHT30;56451;44.804;20.476;2023-06-05T00:01:45;18.66;63.41
68867;SHT30;56451;44.804;20.476;2023-06-05T00:04:12;18.64;63.49
68867;SHT30;56451;44.804;20.476;2023-06-05T00:06:38;18.66;63.63
68867;SHT30;56451;44.804;20.476;2023-06-05T00:09:05;18.64;63.61
68867;SHT30;56451;44.804;20.476;2023-06-05T00:11:31;18.63;63.71
68867;SHT30;56451;44.804;20.476;2023-06-05T00:13:57;18.67;63.68
68867;SHT30;56451;44.804;20.476;2023-06-05T00:16:23;18.66;63.60
68867;SHT30;56451;44.804;20.476;2023-06-05T00:18:49;18.67;63.63
68867;SHT30;56451;44.804;20.476;2023-06-05T00:21:16;18.66;63.63
68867;SHT30;56451;44.804;20.476;2023-06-05T00:23:42;18.67;63.63
68867;SHT30;56451;44.804;20.476;2023-06-05T00:26:09;18.66;63.57
68867;SHT30;56451;44.804;20.476;2023-06-05T00:28:35;18.63;63.67
68867;SHT30;56451;44.804;20.476;2023-06-05T00:31:01;18.60;63.81
68867;SHT30;56451;44.804;20.476;2023-06-05T00:33:27;18.57;63.91
68867;SHT30;56451;44.804;20.476;2023-06-05T00:35:56;18.55;63.89
68867;SHT30;56451;44.804;20.476;2023-06-05T00:38:23;18.56;64.03
68867;SHT30;56451;44.804;20.476;2023-06-05T00:40:49;18.56;63.92
68867;SHT30;56451;44.804;20.476;2023-06-05T00:43:17;18.53;63.96
68867;SHT30;56451;44.804;20.476;2023-06-05T00:45:42;18.50;64.12
68867;SHT30;56451;44.804;20.476;2023-06-05T00:48:09;18.50;64.15
68867;SHT30;56451;44.804;20.476;2023-06-05T00:50:37;18.46;64.34
68867;SHT30;56451;44.804;20.476;2023-06-05T00:53:04;18.48;64.32
68867;SHT30;56451;44.804;20.476;2023-06-05T00:55:31;18.43;64.45
68867;SHT30;56451;44.804;20.476;2023-06-05T00:58:00;18.46;64.45
68867;SHT30;56451;44.804;20.476;2023-06-05T01:00:27;18.45;64.55
68867;SHT30;56451;44.804;20.476;2023-06-05T01:02:53;18.43;64.60
68867;SHT30;56451;44.804;20.476;2023-06-05T01:05:24;18.46;64.48
68867;SHT30;56451;44.804;20.476;2023-06-05T01:07:50;18.52;64.27
68867;SHT30;56451;44.804;20.476;2023-06-05T01:10:16;18.50;64.30
68867;SHT30;56451;44.804;20.476;2023-06-05T01:15:18;18.49;64.27
68867;SHT30;56451;44.804;20.476;2023-06-05T01:17:44;18.49;64.32
68867;SHT30;56451;44.804;20.476;2023-06-05T01:20:13;18.45;64.45
68867;SHT30;56451;44.804;20.476;2023-06-05T01:22:40;18.46;64.62
68867;SHT30;56451;44.804;20.476;2023-06-05T01:25:07;18.45;64.52
68867;SHT30;56451;44.804;20.476;2023-06-05T01:27:57;18.36;64.76
68867;SHT30;56451;44.804;20.476;2023-06-05T01:30:52;18.35;64.86
68867;SHT30;56451;44.804;20.476;2023-06-05T01:33:29;18.30;65.12
68867;SHT30;56451;44.804;20.476;2023-06-05T01:35:56;18.28;65.19
68867;SHT30;56451;44.804;20.476;2023-06-05T01:38:32;18.30;65.26
68867;SHT30;56451;44.804;20.476;2023-06-05T01:40:59;18.33;65.09
68867;SHT30;56451;44.804;20.476;2023-06-05T01:43:26;18.33;65.04
68867;SHT30;56451;44.804;20.476;2023-06-05T01:45:54;18.32;64.99
68867;SHT30;56451;44.804;20.476;2023-06-05T01:48:22;18.33;65.10
68867;SHT30;56451;44.804;20.476;2023-06-05T01:50:49;18.35;65.12
68867;SHT30;56451;44.804;20.476;2023-06-05T01:53:20;18.35;64.98
68867;SHT30;56451;44.804;20.476;2023-06-05T01:55:46;18.35;65.15
68867;SHT30;56451;44.804;20.476;2023-06-05T01:58:12;18.35;65.08
68867;SHT30;56451;44.804;20.476;2023-06-05T02:00:38;18.33;65.11
68867;SHT30;56451;44.804;20.476;2023-06-05T02:03:04;18.38;65.04
68867;SHT30;56451;44.804;20.476;2023-06-05T02:05:30;18.38;64.97
68867;SHT30;56451;44.804;20.476;2023-06-05T02:07:56;18.39;65.02
68867;SHT30;56451;44.804;20.476;2023-06-05T02:10:24;18.40;64.99
68867;SHT30;56451;44.804;20.476;2023-06-05T02:12:50;18.42;64.86
68867;SHT30;56451;44.804;20.476;2023-06-05T02:15:16;18.46;64.83
68867;SHT30;56451;44.804;20.476;2023-06-05T02:17:44;18.46;64.83
68867;SHT30;56451;44.804;20.476;2023-06-05T02:20:25;18.48;64.83
68867;SHT30;56451;44.804;20.476;2023-06-05T02:22:51;18.48;64.81
68867;SHT30;56451;44.804;20.476;2023-06-05T02:25:18;18.42;65.00
68867;SHT30;56451;44.804;20.476;2023-06-05T02:27:48;18.48;64.88
68867;SHT30;56451;44.804;20.476;2023-06-05T02:30:14;18.49;64.84
68867;SHT30;56451;44.804;20.476;2023-06-05T02:32:40;18.43;64.97
68867;SHT30;56451;44.804;20.476;2023-06-05T02:35:12;18.43;65.13
68867;SHT30;56451;44.804;20.476;2023-06-05T02:37:39;18.45;65.28
68867;SHT30;56451;44.804;20.476;2023-06-05T02:40:11;18.43;65.35
68867;SHT30;56451;44.804;20.476;2023-06-05T02:42:38;18.45;65.51
68867;SHT30;56451;44.804;20.476;2023-06-05T02:45:06;18.48;65.31
68867;SHT30;56451;44.804;20.476;2023-06-05T02:47:33;18.45;65.50
68867;SHT30;56451;44.804;20.476;2023-06-05T02:50:00;18.40;65.68
68867;SHT30;56451;44.804;20.476;2023-06-05T02:52:30;18.43;65.63
68867;SHT30;56451;44.804;20.476;2023-06-05T02:55:01;18.39;65.78
68867;SHT30;56451;44.804;20.476;2023-06-05T02:57:28;18.42;65.71
68867;SHT30;56451;44.804;20.476;2023-06-05T02:59:54;18.46;65.71
68867;SHT30;56451;44.804;20.476;2023-06-05T03:02:21;18.46;65.68
68867;SHT30;56451;44.804;20.476;2023-06-05T03:04:48;18.45;65.70
68867;SHT30;56451;44.804;20.476;2023-06-05T03:07:21;18.46;65.57
68867;SHT30;56451;44.804;20.476;2023-06-05T03:09:49;18.49;65.51
68867;SHT30;56451;44.804;20.476;2023-06-05T03:12:15;18.49;65.61
68867;SHT30;56451;44.804;20.476;2023-06-05T03:14:42;18.52;65.55
68867;SHT30;56451;44.804;20.476;2023-06-05T03:17:08;18.49;65.63
68867;SHT30;56451;44.804;20.476;2023-06-05T03:19:35;18.50;65.42
68867;SHT30;56451;44.804;20.476;2023-06-05T03:22:02;18.53;65.41
68867;SHT30;56451;44.804;20.476;2023-06-05T03:24:30;18.56;65.37
68867;SHT30;56451;44.804;20.476;2023-06-05T03:27:02;18.55;65.41
68867;SHT30;56451;44.804;20.476;2023-06-05T03:29:30;18.57;65.38
68867;SHT30;56451;44.804;20.476;2023-06-05T03:31:56;18.60;65.40
68867;SHT30;56451;44.804;20.476;2023-06-05T03:34:23;18.63;65.32
68867;SHT30;56451;44.804;20.476;2023-06-05T03:36:52;18.60;65.32
68867;SHT30;56451;44.804;20.476;2023-06-05T03:39:18;18.64;65.35
68867;SHT30;56451;44.804;20.476;2023-06-05T03:41:46;18.67;65.35
68867;SHT30;56451;44.804;20.476;2023-06-05T03:44:12;18.70;65.31
68867;SHT30;56451;44.804;20.476;2023-06-05T03:46:38;18.71;65.27
68867;SHT30;56451;44.804;20.476;2023-06-05T03:49:05;18.64;65.57
68867;SHT30;56451;44.804;20.476;2023-06-05T03:51:35;18.66;65.57
68867;SHT30;56451;44.804;20.476;2023-06-05T03:54:02;18.70;65.55
68867;SHT30;56451;44.804;20.476;2023-06-05T03:56:29;18.73;65.42
68867;SHT30;56451;44.804;20.476;2023-06-05T03:59:08;18.71;65.64
68867;SHT30;56451;44.804;20.476;2023-06-05T04:01:37;18.71;65.65
68867;SHT30;56451;44.804;20.476;2023-06-05T04:04:04;18.71;65.70
68867;SHT30;56451;44.804;20.476;2023-06-05T04:06:34;18.74;65.65
68867;SHT30;56451;44.804;20.476;2023-06-05T04:09:03;18.77;65.67
68867;SHT30;56451;44.804;20.476;2023-06-05T04:11:41;18.80;65.60
68867;SHT30;56451;44.804;20.476;2023-06-05T04:14:10;18.81;65.55
68867;SHT30;56451;44.804;20.476;2023-06-05T04:16:37;18.81;65.43
68867;SHT30;56451;44.804;20.476;2023-06-05T04:19:11;18.88;65.35
68867;SHT30;56451;44.804;20.476;2023-06-05T04:21:39;18.91;65.26
68867;SHT30;56451;44.804;20.476;2023-06-05T04:24:07;18.98;65.31
68867;SHT30;56451;44.804;20.476;2023-06-05T04:26:40;19.03;65.25
68867;SHT30;56451;44.804;20.476;2023-06-05T04:29:09;19.10;65.20
68867;SHT30;56451;44.804;20.476;2023-06-05T04:31:43;19.12;65.01
68867;SHT30;56451;44.804;20.476;2023-06-05T04:34:09;19.15;64.84
68867;SHT30;56451;44.804;20.476;2023-06-05T04:36:36;19.15;64.79
68867;SHT30;56451;44.804;20.476;2023-06-05T04:39:03;19.21;64.62
68867;SHT30;56451;44.804;20.476;2023-06-05T04:41:30;19.22;64.74
68867;SHT30;56451;44.804;20.476;2023-06-05T04:43:59;19.21;64.68
68867;SHT30;56451;44.804;20.476;2023-06-05T04:46:26;19.21;64.77
68867;SHT30;56451;44.804;20.476;2023-06-05T04:48:53;19.19;64.89
68867;SHT30;56451;44.804;20.476;2023-06-05T04:51:21;19.25;64.70
68867;SHT30;56451;44.804;20.476;2023-06-05T04:53:48;19.24;64.55
68867;SHT30;56451;44.804;20.476;2023-06-05T04:56:20;19.25;64.81
68867;SHT30;56451;44.804;20.476;2023-06-05T04:58:47;19.28;64.64
68867;SHT30;56451;44.804;20.476;2023-06-05T05:01:16;19.29;64.56
68867;SHT30;56451;44.804;20.476;2023-06-05T05:03:42;19.38;64.48
68867;SHT30;56451;44.804;20.476;2023-06-05T05:06:11;19.41;64.28
68867;SHT30;56451;44.804;20.476;2023-06-05T05:08:40;19.44;64.34
68867;SHT30;56451;44.804;20.476;2023-06-05T05:11:06;19.49;64.18
68867;SHT30;56451;44.804;20.476;2023-06-05T05:13:32;19.49;64.11
68867;SHT30;56451;44.804;20.476;2023-06-05T05:15:58;19.52;64.13
68867;SHT30;56451;44.804;20.476;2023-06-05T05:18:25;19.55;63.98
68867;SHT30;56451;44.804;20.476;2023-06-05T05:20:51;19.59;63.85
68867;SHT30;56451;44.804;20.476;2023-06-05T05:23:17;19.58;63.87
68867;SHT30;56451;44.804;20.476;2023-06-05T05:25:43;19.59;63.91
68867;SHT30;56451;44.804;20.476;2023-06-05T05:28:09;19.61;64.09
68867;SHT30;56451;44.804;20.476;2023-06-05T05:30:35;19.66;63.98
68867;SHT30;56451;44.804;20.476;2023-06-05T05:33:02;19.69;64.01
68867;SHT30;56451;44.804;20.476;2023-06-05T05:35:28;19.79;64.01
68867;SHT30;56451;44.804;20.476;2023-06-05T05:37:54;19.87;63.81
68867;SHT30;56451;44.804;20.476;2023-06-05T05:40:20;19.92;63.66
68867;SHT30;56451;44.804;20.476;2023-06-05T05:42:46;20.00;63.38
68867;SHT30;56451;44.804;20.476;2023-06-05T05:45:12;20.07;63.31
68867;SHT30;56451;44.804;20.476;2023-06-05T05:47:38;20.12;63.02
68867;SHT30;56451;44.804;20.476;2023-06-05T05:50:05;20.14;62.87
68867;SHT30;56451;44.804;20.476;2023-06-05T05:52:31;20.13;63.16
68867;SHT30;56451;44.804;20.476;2023-06-05T05:54:57;20.14;63.16
68867;SHT30;56451;44.804;20.476;2023-06-05T05:57:25;20.17;63.15
68867;SHT30;56451;44.804;20.476;2023-06-05T05:59:51;20.24;63.02
68867;SHT30;56451;44.804;20.476;2023-06-05T06:02:17;20.30;62.97
68867;SHT30;56451;44.804;20.476;2023-06-05T06:04:43;20.38;62.55
68867;SHT30;56451;44.804;20.476;2023-06-05T06:07:12;20.44;62.41
68867;SHT30;56451;44.804;20.476;2023-06-05T06:09:38;20.49;62.44
68867;SHT30;56451;44.804;20.476;2023-06-05T06:12:04;20.55;62.22
68867;SHT30;56451;44.804;20.476;2023-06-05T06:14:35;20.55;62.36
68867;SHT30;56451;44.804;20.476;2023-06-05T06:17:02;20.61;62.21
68867;SHT30;56451;44.804;20.476;2023-06-05T06:19:30;20.68;62.24
68867;SHT30;56451;44.804;20.476;2023-06-05T06:21:58;20.67;62.34
68867;SHT30;56451;44.804;20.476;2023-06-05T06:24:24;20.71;62.06
68867;SHT30;56451;44.804;20.476;2023-06-05T06:26:50;20.73;62.32
68867;SHT30;56451;44.804;20.476;2023-06-05T06:29:18;20.76;62.24
68867;SHT30;56451;44.804;20.476;2023-06-05T06:31:46;20.79;62.13
68867;SHT30;56451;44.804;20.476;2023-06-05T06:34:12;20.88;62.21
68867;SHT30;56451;44.804;20.476;2023-06-05T06:36:38;21.00;62.22
68867;SHT30;56451;44.804;20.476;2023-06-05T06:39:09;21.09;61.81
68867;SHT30;56451;44.804;20.476;2023-06-05T06:41:37;21.16;61.88
68867;SHT30;56451;44.804;20.476;2023-06-05T06:44:03;21.26;61.52
68867;SHT30;56451;44.804;20.476;2023-06-05T06:46:30;21.36;61.46
68867;SHT30;56451;44.804;20.476;2023-06-05T06:48:56;21.44;61.29
68867;SHT30;56451;44.804;20.476;2023-06-05T06:51:22;21.57;61.19
68867;SHT30;56451;44.804;20.476;2023-06-05T06:53:49;21.65;61.10
68867;SHT30;56451;44.804;20.476;2023-06-05T06:56:16;21.71;61.06
68867;SHT30;56451;44.804;20.476;2023-06-05T06:58:45;21.77;60.65
68867;SHT30;56451;44.804;20.476;2023-06-05T07:01:13;21.87;60.40
68867;SHT30;56451;44.804;20.476;2023-06-05T07:03:40;21.92;60.48
68867;SHT30;56451;44.804;20.476;2023-06-05T07:06:09;21.95;60.51
68867;SHT30;56451;44.804;20.476;2023-06-05T07:08:35;22.01;60.53
68867;SHT30;56451;44.804;20.476;2023-06-05T07:11:01;22.10;60.36
68867;SHT30;56451;44.804;20.476;2023-06-05T07:13:27;22.17;60.02
68867;SHT30;56451;44.804;20.476;2023-06-05T07:15:52;22.20;59.90
68867;SHT30;56451;44.804;20.476;2023-06-05T07:18:18;22.26;59.84
68867;SHT30;56451;44.804;20.476;2023-06-05T07:20:47;22.32;59.60
68867;SHT30;56451;44.804;20.476;2023-06-05T07:23:14;22.36;59.84
68867;SHT30;56451;44.804;20.476;2023-06-05T07:25:40;22.39;59.93
68867;SHT30;56451;44.804;20.476;2023-06-05T07:28:09;22.49;59.36
68867;SHT30;56451;44.804;20.476;2023-06-05T07:30:39;22.57;59.15
68867;SHT30;56451;44.804;20.476;2023-06-05T07:33:11;22.61;59.28
68867;SHT30;56451;44.804;20.476;2023-06-05T07:35:36;22.64;58.94
68867;SHT30;56451;44.804;20.476;2023-06-05T07:38:03;22.73;58.79
68867;SHT30;56451;44.804;20.476;2023-06-05T07:40:29;22.74;58.85
68867;SHT30;56451;44.804;20.476;2023-06-05T07:42:55;22.81;58.80
68867;SHT30;56451;44.804;20.476;2023-06-05T07:45:21;22.83;58.69
68867;SHT30;56451;44.804;20.476;2023-06-05T07:47:47;22.86;58.94
68867;SHT30;56451;44.804;20.476;2023-06-05T07:50:13;22.91;58.94
68867;SHT30;56451;44.804;20.476;2023-06-05T07:52:39;22.95;58.92
68867;SHT30;56451;44.804;20.476;2023-06-05T07:55:05;23.02;58.96
68867;SHT30;56451;44.804;20.476;2023-06-05T07:57:32;23.12;58.69
68867;SHT30;56451;44.804;20.476;2023-06-05T07:59:58;23.21;58.39
68867;SHT30;56451;44.804;20.476;2023-06-05T08:02:24;23.26;58.37
68867;SHT30;56451;44.804;20.476;2023-06-05T08:04:50;23.28;58.33
68867;SHT30;56451;44.804;20.476;2023-06-05T08:07:16;23.38;58.16
68867;SHT30;56451;44.804;20.476;2023-06-05T08:09:42;23.45;58.27
68867;SHT30;56451;44.804;20.476;2023-06-05T08:12:08;23.59;58.06
68867;SHT30;56451;44.804;20.476;2023-06-05T08:14:34;23.59;58.05
68867;SHT30;56451;44.804;20.476;2023-06-05T08:17:01;23.67;58.39
68867;SHT30;56451;44.804;20.476;2023-06-05T08:19:26;23.74;58.04
68867;SHT30;56451;44.804;20.476;2023-06-05T08:21:53;23.81;57.61
68867;SHT30;56451;44.804;20.476;2023-06-05T08:24:22;23.90;57.87
68867;SHT30;56451;44.804;20.476;2023-06-05T08:26:48;23.96;57.51
68867;SHT30;56451;44.804;20.476;2023-06-05T08:29:14;24.01;57.34
68867;SHT30;56451;44.804;20.476;2023-06-05T08:31:40;24.04;57.44
68867;SHT30;56451;44.804;20.476;2023-06-05T08:34:07;24.07;57.37
68867;SHT30;56451;44.804;20.476;2023-06-05T08:36:33;24.14;57.00
68867;SHT30;56451;44.804;20.476;2023-06-05T08:39:00;24.17;56.70
68867;SHT30;56451;44.804;20.476;2023-06-05T08:41:29;24.17;56.96
68867;SHT30;56451;44.804;20.476;2023-06-05T08:43:56;24.21;57.13
68867;SHT30;56451;44.804;20.476;2023-06-05T08:46:28;24.28;56.92
68867;SHT30;56451;44.804;20.476;2023-06-05T08:48:56;24.35;56.93
68867;SHT30;56451;44.804;20.476;2023-06-05T08:51:22;24.42;57.16
68867;SHT30;56451;44.804;20.476;2023-06-05T08:53:54;24.44;57.17
68867;SHT30;56451;44.804;20.476;2023-06-05T08:56:23;24.47;56.93
68867;SHT30;56451;44.804;20.476;2023-06-05T08:58:49;24.54;57.01
68867;SHT30;56451;44.804;20.476;2023-06-05T09:01:17;24.59;56.86
68867;SHT30;56451;44.804;20.476;2023-06-05T09:03:43;24.58;57.05
68867;SHT30;56451;44.804;20.476;2023-06-05T09:06:10;24.61;57.01
68867;SHT30;56451;44.804;20.476;2023-06-05T09:08:36;24.62;57.29
68867;SHT30;56451;44.804;20.476;2023-06-05T09:11:22;24.72;56.84
68867;SHT30;56451;44.804;20.476;2023-06-05T09:13:49;24.73;56.98
68867;SHT30;56451;44.804;20.476;2023-06-05T09:16:19;24.71;56.65
68867;SHT30;56451;44.804;20.476;2023-06-05T09:18:56;24.78;56.82
68867;SHT30;56451;44.804;20.476;2023-06-05T09:21:24;24.83;56.72
68867;SHT30;56451;44.804;20.476;2023-06-05T09:29:35;24.92;56.64
68867;SHT30;56451;44.804;20.476;2023-06-05T09:32:03;24.99;56.29
68867;SHT30;56451;44.804;20.476;2023-06-05T09:34:32;25.02;56.27
68867;SHT30;56451;44.804;20.476;2023-06-05T09:37:09;25.10;55.95
68867;SHT30;56451;44.804;20.476;2023-06-05T09:39:40;25.13;56.15
68867;SHT30;56451;44.804;20.476;2023-06-05T09:42:06;25.17;55.92
68867;SHT30;56451;44.804;20.476;2023-06-05T09:44:33;25.26;55.82
68867;SHT30;56451;44.804;20.476;2023-06-05T09:47:07;25.38;55.85
68867;SHT30;56451;44.804;20.476;2023-06-05T09:52:11;25.50;54.76
68867;SHT30;56451;44.804;20.476;2023-06-05T09:54:40;25.58;54.57
68867;SHT30;56451;44.804;20.476;2023-06-05T09:57:08;25.65;55.28
68867;SHT30;56451;44.804;20.476;2023-06-05T09:59:44;25.74;54.59
68867;SHT30;56451;44.804;20.476;2023-06-05T10:02:11;25.85;54.16
68867;SHT30;56451;44.804;20.476;2023-06-05T10:04:57;25.91;53.77
68867;SHT30;56451;44.804;20.476;2023-06-05T10:07:25;25.96;54.31
68867;SHT30;56451;44.804;20.476;2023-06-05T10:09:51;26.02;54.02
68867;SHT30;56451;44.804;20.476;2023-06-05T10:12:18;26.08;53.49
68867;SHT30;56451;44.804;20.476;2023-06-05T10:14:45;26.11;53.89
68867;SHT30;56451;44.804;20.476;2023-06-05T10:17:13;26.19;53.61
68867;SHT30;56451;44.804;20.476;2023-06-05T10:19:42;26.29;53.82
68867;SHT30;56451;44.804;20.476;2023-06-05T10:22:12;26.35;53.15
68867;SHT30;56451;44.804;20.476;2023-06-05T10:24:43;26.36;52.58
68867;SHT30;56451;44.804;20.476;2023-06-05T10:32:43;26.53;52.81
68867;SHT30;56451;44.804;20.476;2023-06-05T10:38:17;26.63;52.36
68867;SHT30;56451;44.804;20.476;2023-06-05T10:40:58;26.69;52.38
68867;SHT30;56451;44.804;20.476;2023-06-05T10:43:52;26.73;52.11
68867;SHT30;56451;44.804;20.476;2023-06-05T10:46:36;26.80;51.94
68867;SHT30;56451;44.804;20.476;2023-06-05T10:49:06;26.83;51.95
68867;SHT30;56451;44.804;20.476;2023-06-05T10:51:47;26.90;51.85
68867;SHT30;56451;44.804;20.476;2023-06-05T10:57:02;27.01;51.97
68867;SHT30;56451;44.804;20.476;2023-06-05T11:07:20;27.12;51.36
68867;SHT30;56451;44.804;20.476;2023-06-05T11:15:06;27.28;51.14
68867;SHT30;56451;44.804;20.476;2023-06-05T11:17:35;27.29;50.80
68867;SHT30;56451;44.804;20.476;2023-06-05T11:20:03;27.31;50.81
68867;SHT30;56451;44.804;20.476;2023-06-05T11:22:31;27.32;50.58
68867;SHT30;56451;44.804;20.476;2023-06-05T11:27:45;27.36;50.51
68867;SHT30;56451;44.804;20.476;2023-06-05T11:30:24;27.34;51.06
68867;SHT30;56451;44.804;20.476;2023-06-05T11:32:52;27.43;50.82
68867;SHT30;56451;44.804;20.476;2023-06-05T11:35:26;27.45;49.80
68867;SHT30;56451;44.804;20.476;2023-06-05T11:38:12;27.43;49.84
68867;SHT30;56451;44.804;20.476;2023-06-05T11:40:39;27.43;49.76
68867;SHT30;56451;44.804;20.476;2023-06-05T11:43:07;27.46;50.19
68867;SHT30;56451;44.804;20.476;2023-06-05T11:45:38;27.49;50.11
68867;SHT30;56451;44.804;20.476;2023-06-05T11:48:08;27.55;49.80
68867;SHT30;56451;44.804;20.476;2023-06-05T11:50:35;27.60;49.76
68867;SHT30;56451;44.804;20.476;2023-06-05T11:53:11;27.66;49.75
68867;SHT30;56451;44.804;20.476;2023-06-05T11:55:37;27.67;49.74
68867;SHT30;56451;44.804;20.476;2023-06-05T11:58:27;27.71;49.59
68867;SHT30;56451;44.804;20.476;2023-06-05T12:03:48;27.87;48.97
68867;SHT30;56451;44.804;20.476;2023-06-05T12:06:15;27.96;48.82
68867;SHT30;56451;44.804;20.476;2023-06-05T12:08:42;27.93;48.47
68867;SHT30;56451;44.804;20.476;2023-06-05T12:11:26;28.00;48.78
68867;SHT30;56451;44.804;20.476;2023-06-05T12:13:56;28.04;49.15
68867;SHT30;56451;44.804;20.476;2023-06-05T12:16:32;28.04;48.84
68867;SHT30;56451;44.804;20.476;2023-06-05T12:18:59;28.04;49.01
68867;SHT30;56451;44.804;20.476;2023-06-05T12:21:26;28.08;48.49
68867;SHT30;56451;44.804;20.476;2023-06-05T12:24:01;28.10;48.44
68867;SHT30;56451;44.804;20.476;2023-06-05T12:26:27;28.07;48.24
68867;SHT30;56451;44.804;20.476;2023-06-05T12:29:06;28.11;48.55
68867;SHT30;56451;44.804;20.476;2023-06-05T12:31:33;28.14;48.82
68867;SHT30;56451;44.804;20.476;2023-06-05T12:34:00;28.14;48.67
68867;SHT30;56451;44.804;20.476;2023-06-05T12:36:26;28.15;48.67
68867;SHT30;56451;44.804;20.476;2023-06-05T12:38:54;28.20;48.30
68867;SHT30;56451;44.804;20.476;2023-06-05T12:41:20;28.24;48.12
68867;SHT30;56451;44.804;20.476;2023-06-05T12:43:58;28.29;48.10
68867;SHT30;56451;44.804;20.476;2023-06-05T12:46:24;28.31;47.72
68867;SHT30;56451;44.804;20.476;2023-06-05T12:48:51;28.34;47.70
68867;SHT30;56451;44.804;20.476;2023-06-05T12:51:17;28.35;47.73
68867;SHT30;56451;44.804;20.476;2023-06-05T12:53:43;28.32;47.70
68867;SHT30;56451;44.804;20.476;2023-06-05T12:56:09;28.31;47.70
68867;SHT30;56451;44.804;20.476;2023-06-05T12:58:36;28.28;47.97
68867;SHT30;56451;44.804;20.476;2023-06-05T13:01:02;28.28;47.94
68867;SHT30;56451;44.804;20.476;2023-06-05T13:03:29;28.27;47.38
68867;SHT30;56451;44.804;20.476;2023-06-05T13:05:55;28.25;47.36
68867;SHT30;56451;44.804;20.476;2023-06-05T13:08:21;28.22;47.40
68867;SHT30;56451;44.804;20.476;2023-06-05T13:10:47;28.21;47.36
68867;SHT30;56451;44.804;20.476;2023-06-05T13:13:13;28.18;47.71
68867;SHT30;56451;44.804;20.476;2023-06-05T13:15:40;28.21;47.83
68867;SHT30;56451;44.804;20.476;2023-06-05T13:18:07;28.24;47.54
68867;SHT30;56451;44.804;20.476;2023-06-05T13:20:35;28.24;47.49
68867;SHT30;56451;44.804;20.476;2023-06-05T13:23:01;28.24;47.55
68867;SHT30;56451;44.804;20.476;2023-06-05T13:25:27;28.28;47.92
68867;SHT30;56451;44.804;20.476;2023-06-05T13:27:53;28.35;48.24
68867;SHT30;56451;44.804;20.476;2023-06-05T13:30:19;28.47;48.30
68867;SHT30;56451;44.804;20.476;2023-06-05T13:32:45;28.49;48.06
68867;SHT30;56451;44.804;20.476;2023-06-05T13:35:11;28.56;47.86
68867;SHT30;56451;44.804;20.476;2023-06-05T13:37:38;28.55;47.74
68867;SHT30;56451;44.804;20.476;2023-06-05T13:40:04;28.55;48.11
68867;SHT30;56451;44.804;20.476;2023-06-05T13:42:32;28.59;48.01
68867;SHT30;56451;44.804;20.476;2023-06-05T13:44:58;28.63;48.14
68867;SHT30;56451;44.804;20.476;2023-06-05T13:47:24;28.59;47.54
68867;SHT30;56451;44.804;20.476;2023-06-05T13:49:51;28.68;47.94
68867;SHT30;56451;44.804;20.476;2023-06-05T13:52:19;28.62;47.93
68867;SHT30;56451;44.804;20.476;2023-06-05T13:54:45;28.69;47.72
68867;SHT30;56451;44.804;20.476;2023-06-05T13:57:11;28.68;47.66
68867;SHT30;56451;44.804;20.476;2023-06-05T13:59:38;28.68;47.90
68867;SHT30;56451;44.804;20.476;2023-06-05T14:02:04;28.65;47.84
68867;SHT30;56451;44.804;20.476;2023-06-05T14:04:31;28.63;48.06
68867;SHT30;56451;44.804;20.476;2023-06-05T14:06:57;28.61;47.84
68867;SHT30;56451;44.804;20.476;2023-06-05T14:09:24;28.61;47.92
68867;SHT30;56451;44.804;20.476;2023-06-05T14:11:50;28.61;47.84
68867;SHT30;56451;44.804;20.476;2023-06-05T14:14:16;28.62;47.93
68867;SHT30;56451;44.804;20.476;2023-06-05T14:16:44;28.62;47.71
68867;SHT30;56451;44.804;20.476;2023-06-05T14:19:10;28.58;47.73
68867;SHT30;56451;44.804;20.476;2023-06-05T14:21:36;28.55;48.07
68867;SHT30;56451;44.804;20.476;2023-06-05T14:24:03;28.58;47.85
68867;SHT30;56451;44.804;20.476;2023-06-05T14:26:31;28.53;47.95
68867;SHT30;56451;44.804;20.476;2023-06-05T14:28:57;28.51;48.17
68867;SHT30;56451;44.804;20.476;2023-06-05T14:31:22;28.48;48.06
68867;SHT30;56451;44.804;20.476;2023-06-05T14:33:51;28.45;48.01
68867;SHT30;56451;44.804;20.476;2023-06-05T14:36:17;28.49;48.45
68867;SHT30;56451;44.804;20.476;2023-06-05T14:38:43;28.52;48.29
68867;SHT30;56451;44.804;20.476;2023-06-05T14:41:09;28.53;48.18
68867;SHT30;56451;44.804;20.476;2023-06-05T14:43:35;28.52;48.10
68867;SHT30;56451;44.804;20.476;2023-06-05T14:46:01;28.52;47.98
68867;SHT30;56451;44.804;20.476;2023-06-05T14:48:27;28.53;48.00
68867;SHT30;56451;44.804;20.476;2023-06-05T14:50:52;28.53;48.04
68867;SHT30;56451;44.804;20.476;2023-06-05T14:53:19;28.53;47.86
68867;SHT30;56451;44.804;20.476;2023-06-05T14:55:45;28.51;47.89
68867;SHT30;56451;44.804;20.476;2023-06-05T14:58:11;28.45;47.92
68867;SHT30;56451;44.804;20.476;2023-06-05T15:00:37;28.45;48.15
68867;SHT30;56451;44.804;20.476;2023-06-05T15:03:03;28.47;48.15
68867;SHT30;56451;44.804;20.476;2023-06-05T15:05:31;28.47;48.26
68867;SHT30;56451;44.804;20.476;2023-06-05T15:07:58;28.49;47.92
68867;SHT30;56451;44.804;20.476;2023-06-05T15:10:25;28.47;47.94
68867;SHT30;56451;44.804;20.476;2023-06-05T15:12:52;28.45;47.89
68867;SHT30;56451;44.804;20.476;2023-06-05T15:15:24;28.44;47.78
68867;SHT30;56451;44.804;20.476;2023-06-05T15:17:51;28.32;47.84
68867;SHT30;56451;44.804;20.476;2023-06-05T15:20:21;28.29;47.96
68867;SHT30;56451;44.804;20.476;2023-06-05T15:22:47;28.22;48.25
68867;SHT30;56451;44.804;20.476;2023-06-05T15:25:13;28.17;48.32
68867;SHT30;56451;44.804;20.476;2023-06-05T15:27:40;28.17;48.56
68867;SHT30;56451;44.804;20.476;2023-06-05T15:30:07;28.17;48.51
68867;SHT30;56451;44.804;20.476;2023-06-05T15:32:33;28.10;48.48
68867;SHT30;56451;44.804;20.476;2023-06-05T15:34:59;28.07;48.71
68867;SHT30;56451;44.804;20.476;2023-06-05T15:37:25;28.00;48.83
68867;SHT30;56451;44.804;20.476;2023-06-05T15:39:51;27.92;48.81
68867;SHT30;56451;44.804;20.476;2023-06-05T15:42:18;27.84;49.02
68867;SHT30;56451;44.804;20.476;2023-06-05T15:44:44;27.80;49.17
68867;SHT30;56451;44.804;20.476;2023-06-05T15:47:10;27.73;49.26
68867;SHT30;56451;44.804;20.476;2023-06-05T15:49:36;27.66;49.27
68867;SHT30;56451;44.804;20.476;2023-06-05T15:52:02;27.56;49.54
68867;SHT30;56451;44.804;20.476;2023-06-05T15:54:28;27.46;49.69
68867;SHT30;56451;44.804;20.476;2023-06-05T15:57:03;27.41;49.88
68867;SHT30;56451;44.804;20.476;2023-06-05T15:59:29;27.41;49.94
68867;SHT30;56451;44.804;20.476;2023-06-05T16:01:55;27.28;50.01